Terminal Aerodrome Forecast
Issued by NWS Mobile, AL

Home | Current Version | Previous Version | Text Only | Print | Product List | Glossary On
Versions: 1 2 3 4 5 6 7 8 9 10 11 12 13 14 15 16 17 18 19 20 21 22 23
000
FTUS44 KMOB 231100
TAFPNS
TAF
KPNS 231139Z 2312/2412 02008KT P6SM FEW200
      TEMPO 2314/2318 BKN005
     FM231900 04009KT P6SM SCT010
     FM232100 06009KT P6SM SKC=

USA.gov is the U.S. government's official web portal to all federal, state and local government web resources and services.